»·PEaware :: N815M KSAC-KRNO

N815M :: KSAC-KRNO

FLIGHT INFORMATION

Flight Status: Arrived
Operator: Privately registered:
United States
More flights under this callsign
Pilot: Robert C. (30425)
Aircraft: BEECH AIRCRAFT DEBONAIR BONANZA
(BE33)
More flights by this aircraft type
Origin: KSAC Sacramento Executive
United States
Destination: KRNO Reno/Tahoe Intl
United States
More flights between these airports :: More routes between these airports
Route: SAC V6 SWR
File this flight plan on PilotEdge
Remarks:
Altitude:
(Current/Filed)
13,000ft
Speed:
(Current/Filed)
165kts
Departed: 25-Sep-20 08:47 PM
Arrived: 25-Sep-20 09:42 PM
Distance/Time
Traveled:
100nm/0:55
Distance/Time
To Go:
Arrived

Flight Plot

Page will automatically refresh every two minutes.

Flight plan parsing failed; only flown route is shown


Map Options




Map Legend


Flown Route
Filed Route
Departure Airport
Arrival Airport
Navaid (VOR, NDB)
Fix

Horizontal Profiles

Position Reports

Time Latitude Longitude Heading Altitude Ground
Speed
25-Sep-20 20:13 38.519953 -121.493681 235 24ft 0kts
25-Sep-20 20:14 38.519953 -121.493681 235 24ft 0kts
25-Sep-20 20:15 38.519953 -121.493681 235 24ft 0kts
25-Sep-20 20:16 38.519953 -121.493681 235 24ft 0kts
25-Sep-20 20:17 38.519953 -121.493681 235 24ft 0kts
25-Sep-20 20:18 38.519953 -121.493681 235 24ft 0kts
25-Sep-20 20:19 38.519953 -121.493681 235 24ft 0kts
25-Sep-20 20:20 38.519953 -121.493681 235 24ft 0kts
25-Sep-20 20:21 38.519953 -121.493681 235 24ft 0kts
25-Sep-20 20:22 38.519953 -121.493681 235 24ft 0kts
25-Sep-20 20:23 38.519953 -121.493681 235 24ft 0kts
25-Sep-20 20:24 38.519953 -121.493681 235 24ft 0kts
25-Sep-20 20:25 38.519953 -121.493681 235 24ft 0kts
25-Sep-20 20:26 38.519953 -121.493681 235 24ft 0kts
25-Sep-20 20:27 38.519953 -121.493681 235 24ft 0kts
25-Sep-20 20:28 38.519953 -121.493681 235 24ft 0kts
25-Sep-20 20:29 38.519953 -121.493681 235 24ft 0kts
25-Sep-20 20:30 38.519953 -121.493681 235 24ft 0kts
25-Sep-20 20:31 38.519953 -121.493681 235 24ft 0kts
25-Sep-20 20:32 38.519953 -121.493681 235 24ft 0kts
25-Sep-20 20:33 38.519953 -121.493681 235 24ft 0kts
25-Sep-20 20:34 38.519953 -121.493681 235 24ft 0kts
25-Sep-20 20:35 38.519953 -121.493681 235 24ft 0kts
25-Sep-20 20:36 38.519953 -121.493681 235 24ft 0kts
25-Sep-20 20:37 38.519953 -121.493681 235 24ft 0kts
25-Sep-20 20:38 38.519953 -121.493681 235 24ft 0kts
25-Sep-20 20:39 38.519953 -121.493681 235 24ft 0kts
25-Sep-20 20:40 38.519953 -121.493681 235 24ft 0kts
25-Sep-20 20:41 38.519953 -121.493681 235 24ft 0kts
25-Sep-20 20:42 38.519903 -121.493766 228 24ft 6kts
25-Sep-20 20:44 38.519242 -121.490978 97 23ft 8kts
25-Sep-20 20:45 38.519172 -121.490442 102 23ft 0kts
25-Sep-20 20:46 38.518713 -121.489514 206 23ft 9kts
25-Sep-20 20:47 38.508438 -121.498059 213 174ft 100kts
25-Sep-20 20:48 38.481788 -121.495701 114 1038ft 131kts
25-Sep-20 20:49 38.472392 -121.447052 105 1878ft 141kts
25-Sep-20 20:50 38.476648 -121.399731 34 2682ft 142kts
25-Sep-20 20:51 38.508936 -121.371480 32 3471ft 139kts
25-Sep-20 20:52 38.540160 -121.343876 32 4257ft 135kts
25-Sep-20 20:53 38.571079 -121.315958 32 4955ft 136kts
25-Sep-20 20:54 38.600791 -121.285615 41 5587ft 138kts
25-Sep-20 20:55 38.627318 -121.249164 45 6187ft 136kts
25-Sep-20 20:56 38.651829 -121.211882 46 6777ft 133kts
25-Sep-20 20:57 38.675257 -121.174763 46 7379ft 129kts
25-Sep-20 20:58 38.697490 -121.136174 72 7981ft 136kts
25-Sep-20 20:59 38.711777 -121.091845 51 8615ft 129kts
25-Sep-20 21:00 38.733353 -121.053714 49 9225ft 125kts
25-Sep-20 21:01 38.754424 -121.017201 49 9770ft 123kts
25-Sep-20 21:02 38.775382 -120.980837 49 10277ft 121kts
25-Sep-20 21:02 38.792408 -120.951337 49 10694ft 118kts
25-Sep-20 21:03 38.811624 -120.917949 49 11183ft 109kts
25-Sep-20 21:05 38.832156 -120.882193 48 11747ft 96kts
25-Sep-20 21:06 38.848442 -120.853928 48 12044ft 102kts
25-Sep-20 21:06 38.864139 -120.826942 48 12245ft 116kts
25-Sep-20 21:07 38.885117 -120.790391 49 12532ft 125kts
25-Sep-20 21:08 38.906727 -120.752466 48 12844ft 128kts
25-Sep-20 21:09 38.929149 -120.713230 48 13004ft 139kts
25-Sep-20 21:10 38.954355 -120.668988 48 13019ft 153kts
25-Sep-20 21:11 38.981086 -120.621964 47 13037ft 161kts
25-Sep-20 21:12 39.008779 -120.573174 47 13057ft 166kts
25-Sep-20 21:13 39.037051 -120.523341 47 13078ft 169kts
25-Sep-20 21:14 39.065852 -120.472557 47 13084ft 172kts
25-Sep-20 21:15 39.095644 -120.420006 48 12795ft 187kts
25-Sep-20 21:16 39.128211 -120.362265 48 12210ft 193kts
25-Sep-20 21:17 39.159587 -120.306468 48 12097ft 176kts
25-Sep-20 21:18 39.180105 -120.246818 79 12107ft 174kts
25-Sep-20 21:19 39.185656 -120.183470 80 12110ft 172kts
25-Sep-20 21:20 39.186455 -120.120106 84 12110ft 172kts
25-Sep-20 21:21 39.188950 -120.056786 84 12110ft 172kts
25-Sep-20 21:22 39.191458 -119.992833 84 12110ft 172kts
25-Sep-20 21:23 39.194027 -119.926355 84 12086ft 173kts
25-Sep-20 21:24 39.196694 -119.858613 84 12060ft 174kts
25-Sep-20 21:25 39.199415 -119.790846 84 12034ft 174kts
25-Sep-20 21:26 39.170005 -119.748260 194 12016ft 157kts
25-Sep-20 21:27 39.120004 -119.765458 198 11228ft 187kts
25-Sep-20 21:28 39.063071 -119.751915 202 10504ft 187kts
25-Sep-20 21:29 39.066195 -119.732597 335 10524ft 137kts
25-Sep-20 21:30 39.101941 -119.759722 336 10520ft 139kts
25-Sep-20 21:31 39.142998 -119.768652 14 10526ft 147kts
25-Sep-20 21:32 39.186122 -119.765221 351 10521ft 144kts
25-Sep-20 21:33 39.229651 -119.767923 351 10347ft 156kts
25-Sep-20 21:34 39.280257 -119.769224 352 9316ft 174kts
25-Sep-20 21:35 39.333651 -119.769761 354 8345ft 178kts
25-Sep-20 21:36 39.386780 -119.769699 350 7264ft 137kts
25-Sep-20 21:37 39.418293 -119.769447 351 6084ft 91kts
25-Sep-20 21:38 39.443352 -119.769470 349 5453ft 87kts
25-Sep-20 21:39 39.468155 -119.769496 349 4885ft 89kts
25-Sep-20 21:40 39.490496 -119.769311 351 4419ft 72kts
25-Sep-20 21:41 39.503189 -119.769805 348 4418ft 7kts
25-Sep-20 21:42 39.507960 -119.770648 0 4418ft 14kts
25-Sep-20 21:43 39.510358 -119.771705 226 4418ft 13kts
25-Sep-20 21:44 39.510403 -119.772440 279 4418ft 0kts
25-Sep-20 21:45 39.510403 -119.772440 279 4418ft 0kts
25-Sep-20 21:46 39.491613 -119.769413 354 4419ft 68kts
25-Sep-20 21:47 39.510403 -119.772440 279 4418ft 0kts
25-Sep-20 21:48 39.510376 -119.772271 286 4418ft 0kts

Navigation Log

Ident Type
Flight plan parsing failed, navigation log unavailable